Time;durP1;ratioP1;P1;durP2;ratioP2;P2;SDS_P1;SDS_P2;PMS_P1;PMS_P2;Temp;Humidity;BMP_temperature;BMP_pressure;BME280_temperature;BME280_humidity;BME280_pressure;Samples;Min_cycle;Max_cycle;Signal;HPM_P1;HPM_P2
2022/04/17 00:00:05;;;;;;;9.52;8.93;;;7.60;54.50;;;;;;5135475;27;20219;-54
2022/04/17 00:02:32;;;;;;;9.80;9.20;;;7.60;54.90;;;;;;5136951;27;20209;-54
2022/04/17 00:04:59;;;;;;;9.70;9.10;;;7.70;54.70;;;;;;5136667;27;20317;-54
2022/04/17 00:07:26;;;;;;;8.80;8.30;;;7.80;54.70;;;;;;5136538;27;20301;-55
2022/04/17 00:09:53;;;;;;;9.18;8.52;;;8.00;54.00;;;;;;5136782;27;20199;-54
2022/04/17 00:12:20;;;;;;;9.07;8.48;;;8.10;53.70;;;;;;5136593;27;20222;-54
2022/04/17 00:14:47;;;;;;;9.73;8.88;;;8.10;54.40;;;;;;5135329;27;20635;-54
2022/04/17 00:17:15;;;;;;;9.40;8.90;;;8.10;53.70;;;;;;5136608;27;20213;-54
2022/04/17 00:19:42;;;;;;;9.48;8.88;;;8.10;53.90;;;;;;5136440;27;20202;-54
2022/04/17 00:22:08;;;;;;;9.68;8.98;;;8.00;53.80;;;;;;5136413;27;20222;-54
2022/04/17 00:24:35;;;;;;;9.80;8.90;;;7.90;53.80;;;;;;5135953;27;20231;-54
2022/04/17 00:27:02;;;;;;;9.80;9.20;;;7.90;54.40;;;;;;5136240;27;20206;-54
2022/04/17 00:29:29;;;;;;;9.55;8.85;;;7.80;54.90;;;;;;5135138;27;20203;-54
2022/04/17 00:31:57;;;;;;;8.98;8.48;;;7.70;54.50;;;;;;5136292;27;20202;-55
2022/04/17 00:34:26;;;;;;;9.93;9.25;;;7.60;54.90;;;;;;5136318;27;20540;-54
2022/04/17 00:36:53;;;;;;;9.90;9.30;;;7.40;54.90;;;;;;5136051;27;20209;-54
2022/04/17 00:39:20;;;;;;;9.52;8.88;;;7.40;56.30;;;;;;5136159;27;20205;-53
2022/04/17 00:41:48;;;;;;;9.48;8.70;;;7.50;55.30;;;;;;5136009;27;20290;-54
2022/04/17 00:44:15;;;;;;;9.60;9.00;;;7.50;56.40;;;;;;5134710;27;20210;-54
2022/04/17 00:46:42;;;;;;;9.82;9.20;;;7.50;55.40;;;;;;5135841;27;20234;-53
2022/04/17 00:49:09;;;;;;;9.75;9.25;;;7.50;55.60;;;;;;5135950;27;20198;-54
2022/04/17 00:51:38;;;;;;;9.65;9.05;;;7.50;55.50;;;;;;5135572;27;20661;-54
2022/04/17 00:54:08;;;;;;;9.57;8.88;;;7.40;56.40;;;;;;5135770;27;20286;-53
2022/04/17 00:56:35;;;;;;;9.98;9.07;;;7.40;56.40;;;;;;5135957;27;20245;-54
2022/04/17 00:59:03;;;;;;;9.77;9.10;;;7.40;55.90;;;;;;5134558;27;20231;-54
2022/04/17 01:01:32;;;;;;;9.55;8.90;;;7.40;55.40;;;;;;5135693;27;20242;-54
2022/04/17 01:03:59;;;;;;;10.30;9.48;;;7.30;56.10;;;;;;5135673;27;20609;-54
2022/04/17 01:06:26;;;;;;;9.82;9.20;;;7.40;57.30;;;;;;5135474;27;20231;-54
2022/04/17 01:08:55;;;;;;;9.80;9.20;;;7.40;56.30;;;;;;5135595;27;20286;-54
2022/04/17 01:11:22;;;;;;;10.70;10.00;;;7.40;55.80;;;;;;5135607;27;20242;-54
2022/04/17 01:13:49;;;;;;;10.43;9.73;;;7.40;56.60;;;;;;5134230;27;20203;-54
2022/04/17 01:16:17;;;;;;;9.85;9.25;;;7.30;57.10;;;;;;5135406;27;20205;-54
2022/04/17 01:18:54;;;;;;;10.00;9.40;;;7.30;56.60;;;;;;5135377;27;20198;-55
2022/04/17 01:21:22;;;;;;;10.05;9.38;;;7.40;55.50;;;;;;5135039;27;20205;-54
2022/04/17 01:29:20;;;;;;;10.40;9.77;;;7.40;55.40;;;;;;5134055;27;20291;-54
2022/04/17 01:31:47;;;;;;;10.52;9.85;;;7.30;56.70;;;;;;5134817;27;20199;-53
2022/04/17 01:34:15;;;;;;;10.13;9.43;;;7.20;56.00;;;;;;5135109;27;20671;-54
2022/04/17 01:36:44;;;;;;;10.57;9.77;;;7.20;55.80;;;;;;5133992;27;20203;-54
2022/04/17 01:39:11;;;;;;;10.40;9.70;;;7.20;56.10;;;;;;5134991;27;20687;-53
2022/04/17 01:41:38;;;;;;;10.52;9.77;;;7.20;56.50;;;;;;5135042;27;20225;-54
2022/04/17 01:44:06;;;;;;;10.25;9.55;;;7.20;55.60;;;;;;5133634;27;20625;-54
2022/04/17 01:46:34;;;;;;;10.32;9.63;;;7.20;55.70;;;;;;5134695;27;20821;-53
2022/04/17 01:49:01;;;;;;;10.55;9.85;;;7.10;57.30;;;;;;5134744;27;20669;-54
2022/04/17 01:51:28;;;;;;;9.75;9.02;;;7.10;55.90;;;;;;5134545;27;20202;-54
2022/04/17 01:53:56;;;;;;;10.70;9.85;;;7.20;55.60;;;;;;5134730;27;20206;-54
2022/04/17 01:56:23;;;;;;;10.20;9.60;;;7.20;55.50;;;;;;5134695;27;20294;-54
2022/04/17 01:58:50;;;;;;;10.65;9.75;;;7.20;55.60;;;;;;5133136;27;20697;-54
2022/04/17 02:01:17;;;;;;;10.90;10.10;;;7.10;55.90;;;;;;5134491;27;20234;-54
2022/04/17 02:03:43;;;;;;;10.20;9.50;;;7.10;56.70;;;;;;5134572;27;20287;-54
2022/04/17 02:06:10;;;;;;;10.82;9.90;;;7.00;56.90;;;;;;5134178;27;20237;-54
2022/04/17 02:08:37;;;;;;;10.20;9.50;;;7.00;56.50;;;;;;5134429;27;20238;-54
2022/04/17 02:11:05;;;;;;;10.88;9.98;;;7.00;56.70;;;;;;5134465;27;20285;-54
2022/04/17 02:13:34;;;;;;;11.82;10.90;;;7.00;57.00;;;;;;5132933;27;20293;-54
2022/04/17 02:16:01;;;;;;;10.55;9.90;;;6.90;57.00;;;;;;5134382;27;20199;-54
2022/04/17 02:18:28;;;;;;;10.60;9.80;;;6.80;57.30;;;;;;5134233;27;20732;-54
2022/04/17 02:20:55;;;;;;;10.38;9.68;;;6.80;58.70;;;;;;5134147;27;20645;-54
2022/04/17 02:23:22;;;;;;;11.00;10.10;;;6.80;58.40;;;;;;5134163;27;20247;-54
2022/04/17 02:25:48;;;;;;;11.13;10.23;;;6.80;57.50;;;;;;5133998;27;20236;-54
2022/04/17 02:28:17;;;;;;;11.27;10.38;;;6.80;57.30;;;;;;5134130;27;20722;-54
2022/04/17 02:30:44;;;;;;;10.90;10.20;;;6.80;58.20;;;;;;5133205;27;20221;-54
2022/04/17 02:33:11;;;;;;;10.95;10.15;;;6.80;57.90;;;;;;5134108;27;20196;-54
2022/04/17 02:35:38;;;;;;;10.82;10.05;;;6.80;57.90;;;;;;5133815;27;20684;-54
2022/04/17 02:38:05;;;;;;;10.48;9.77;;;6.70;58.70;;;;;;5133929;27;20697;-53
2022/04/17 02:40:31;;;;;;;10.48;9.77;;;6.60;59.10;;;;;;5133815;27;20203;-54
2022/04/17 02:42:59;;;;;;;10.18;9.38;;;6.60;58.50;;;;;;5134004;27;20650;-56
2022/04/17 02:45:27;;;;;;;11.38;10.57;;;6.60;58.70;;;;;;5132593;27;20231;-53
2022/04/17 02:47:54;;;;;;;10.85;10.05;;;6.60;59.00;;;;;;5133823;27;20209;-55
2022/04/17 02:50:22;;;;;;;10.77;10.07;;;6.50;59.60;;;;;;5133894;27;20209;-55
2022/04/17 02:52:50;;;;;;;10.80;10.00;;;6.40;60.50;;;;;;5133642;27;20265;-55
2022/04/17 02:55:17;;;;;;;10.65;9.85;;;6.40;59.70;;;;;;5133840;27;20213;-55
2022/04/17 02:57:45;;;;;;;10.93;10.13;;;6.50;59.00;;;;;;5133740;27;20237;-55
2022/04/17 03:00:12;;;;;;;10.48;9.88;;;6.50;59.00;;;;;;5132496;27;20713;-55
2022/04/17 03:05:37;;;;;;;10.90;10.20;;;6.40;61.50;;;;;;5133664;28;20225;-55
2022/04/17 03:08:05;;;;;;;10.88;10.13;;;6.40;59.70;;;;;;5133815;27;20203;-55
2022/04/17 03:10:32;;;;;;;11.10;10.30;;;6.40;61.00;;;;;;5133700;27;20216;-56
2022/04/17 03:12:59;;;;;;;11.50;10.60;;;6.40;60.00;;;;;;5133633;27;20290;-55
2022/04/17 03:15:26;;;;;;;10.32;9.63;;;6.40;60.10;;;;;;5132397;27;20624;-55
2022/04/17 03:17:55;;;;;;;11.80;10.90;;;6.30;59.70;;;;;;5133596;27;20209;-55
2022/04/17 03:20:22;;;;;;;11.35;10.57;;;6.40;59.50;;;;;;5133531;27;20232;-55
2022/04/17 03:22:50;;;;;;;12.43;11.40;;;6.30;59.90;;;;;;5133451;27;20234;-55
2022/04/17 03:25:17;;;;;;;10.75;9.95;;;6.30;60.00;;;;;;5133457;27;20203;-55
2022/04/17 03:27:46;;;;;;;12.90;10.60;;;6.30;59.70;;;;;;5133602;27;20203;-55
2022/04/17 03:30:14;;;;;;;11.60;10.60;;;6.30;60.10;;;;;;5132261;27;20214;-56
2022/04/17 03:32:41;;;;;;;11.48;10.63;;;6.20;60.80;;;;;;5133370;27;20223;-55
2022/04/17 03:35:10;;;;;;;11.85;10.80;;;6.20;60.20;;;;;;5133428;27;20556;-55
2022/04/17 03:37:37;;;;;;;11.20;10.40;;;6.20;60.50;;;;;;5133610;27;20206;-55
2022/04/17 03:40:05;;;;;;;12.13;11.10;;;6.20;60.10;;;;;;5133422;27;20246;-55
2022/04/17 03:42:32;;;;;;;10.95;10.10;;;6.20;61.70;;;;;;5133417;27;20199;-55
2022/04/17 03:44:59;;;;;;;11.07;10.20;;;6.20;60.90;;;;;;5132128;27;20286;-56
2022/04/17 03:47:26;;;;;;;11.07;10.00;;;6.20;61.70;;;;;;5133091;27;20227;-56
2022/04/17 03:49:53;;;;;;;10.70;10.00;;;6.20;61.20;;;;;;5133385;27;20209;-55
2022/04/17 03:52:21;;;;;;;11.32;10.50;;;6.20;61.60;;;;;;5133043;27;20258;-55
2022/04/17 03:54:48;;;;;;;11.52;10.63;;;6.20;61.00;;;;;;5133353;27;20207;-55
2022/04/17 03:57:15;;;;;;;10.82;10.10;;;6.20;61.10;;;;;;5133238;27;20203;-55
2022/04/17 03:59:41;;;;;;;10.88;10.00;;;6.20;62.50;;;;;;5132374;27;20293;-55
2022/04/17 04:02:08;;;;;;;10.60;9.80;;;6.10;62.00;;;;;;5137031;27;20203;-55
2022/04/17 04:04:36;;;;;;;11.10;10.20;;;6.10;61.90;;;;;;5137071;27;20291;-55
2022/04/17 04:07:03;;;;;;;11.07;10.07;;;6.10;62.40;;;;;;5136685;27;20237;-55
2022/04/17 04:09:31;;;;;;;10.50;9.77;;;6.00;63.40;;;;;;5136910;27;20199;-56
2022/04/17 04:11:58;;;;;;;10.50;9.80;;;5.90;62.90;;;;;;5136896;27;20237;-56
2022/04/17 04:14:25;;;;;;;10.75;9.95;;;5.90;62.90;;;;;;5135430;27;20233;-56
2022/04/17 04:16:53;;;;;;;10.65;9.77;;;5.90;62.60;;;;;;5136702;27;20289;-56
2022/04/17 04:19:20;;;;;;;10.73;9.93;;;5.90;61.60;;;;;;5136709;27;20207;-56
2022/04/17 04:21:49;;;;;;;10.10;9.40;;;5.70;62.70;;;;;;5136549;27;20246;-55
2022/04/17 04:24:17;;;;;;;10.40;9.70;;;5.70;62.20;;;;;;5136584;27;20656;-56
2022/04/17 04:26:45;;;;;;;10.50;9.60;;;5.70;63.00;;;;;;5136366;27;20230;-56
2022/04/17 04:29:31;;;;;;;10.45;9.60;;;5.60;64.00;;;;;;5135031;27;20199;-55
2022/04/17 04:31:58;;;;;;;10.85;10.05;;;5.70;63.60;;;;;;5136374;27;20252;-55
2022/04/17 04:34:25;;;;;;;10.50;9.80;;;5.70;62.80;;;;;;5136404;27;20203;-55
2022/04/17 04:36:53;;;;;;;10.88;10.07;;;5.70;62.80;;;;;;5136124;27;20294;-56
2022/04/17 04:39:19;;;;;;;10.60;9.80;;;5.70;63.00;;;;;;5136147;27;20205;-54
2022/04/17 04:41:48;;;;;;;10.02;9.32;;;5.70;63.50;;;;;;5136103;27;20206;-54
2022/04/17 04:44:14;;;;;;;10.00;9.30;;;5.60;64.00;;;;;;5134824;27;20234;-54
2022/04/17 04:46:40;;;;;;;9.65;8.95;;;5.60;64.00;;;;;;5136057;27;20326;-54
2022/04/17 04:51:52;;;;;;;9.73;9.13;;;5.60;63.60;;;;;;5135688;27;20466;-54
2022/04/17 04:54:19;;;;;;;10.52;9.80;;;5.60;63.70;;;;;;5135963;27;20211;-54
2022/04/17 04:56:45;;;;;;;10.80;9.63;;;5.60;63.40;;;;;;5135868;27;20293;-54
2022/04/17 04:59:14;;;;;;;10.07;9.20;;;5.50;63.90;;;;;;5134626;27;20203;-54
2022/04/17 05:01:40;;;;;;;10.50;9.60;;;5.50;63.50;;;;;;5135680;27;20221;-54
2022/04/17 05:04:07;;;;;;;10.50;9.77;;;5.50;62.80;;;;;;5135747;27;20209;-54
2022/04/17 05:06:34;;;;;;;8.85;8.25;;;5.50;63.00;;;;;;5135403;27;20314;-54
2022/04/17 05:09:01;;;;;;;10.32;9.52;;;5.60;62.70;;;;;;5135651;27;20207;-54
2022/04/17 05:11:28;;;;;;;9.98;8.98;;;5.60;63.00;;;;;;5135599;27;20205;-54
2022/04/17 05:13:55;;;;;;;9.52;8.80;;;5.80;62.20;;;;;;5134356;27;20199;-54
2022/04/17 05:16:23;;;;;;;9.98;9.20;;;5.80;63.00;;;;;;5135537;27;20335;-54
2022/04/17 05:19:00;;;;;;;9.60;9.00;;;5.70;62.80;;;;;;5135356;27;20656;-54
2022/04/17 05:21:31;;;;;;;9.60;8.90;;;5.80;62.40;;;;;;5135244;27;20673;-54
2022/04/17 05:23:58;;;;;;;10.52;9.82;;;5.90;61.90;;;;;;5135440;27;20209;-54
2022/04/17 05:26:25;;;;;;;9.65;8.95;;;5.80;62.50;;;;;;5135293;27;20258;-54
2022/04/17 05:28:52;;;;;;;9.10;8.50;;;5.80;62.20;;;;;;5134007;27;20199;-54
2022/04/17 05:31:19;;;;;;;10.00;9.30;;;5.90;62.10;;;;;;5135170;27;20207;-54
2022/04/17 05:33:47;;;;;;;9.98;9.20;;;5.90;62.80;;;;;;5135004;27;20203;-54
2022/04/17 05:36:14;;;;;;;9.88;9.07;;;5.90;63.00;;;;;;5135034;27;20290;-53
2022/04/17 05:38:41;;;;;;;9.57;8.98;;;5.90;64.20;;;;;;5135148;27;20202;-55
2022/04/17 05:41:10;;;;;;;9.30;8.75;;;5.90;63.00;;;;;;5135140;27;20213;-55
2022/04/17 05:43:38;;;;;;;10.02;9.43;;;6.00;62.90;;;;;;5133606;27;20195;-55
2022/04/17 05:46:05;;;;;;;9.20;8.60;;;6.00;62.70;;;;;;5134876;27;20199;-55
2022/04/17 05:48:33;;;;;;;10.00;9.40;;;6.00;62.50;;;;;;5134798;27;20203;-56
2022/04/17 05:51:02;;;;;;;9.45;8.82;;;5.90;61.80;;;;;;5134865;27;20293;-55
2022/04/17 05:53:29;;;;;;;10.30;9.32;;;5.90;62.70;;;;;;5134483;27;20229;-55
2022/04/17 05:55:56;;;;;;;8.70;8.20;;;5.90;62.70;;;;;;5134623;27;20212;-55
2022/04/17 05:58:23;;;;;;;22.63;8.38;;;5.90;63.10;;;;;;5134637;27;20250;-55
2022/04/17 06:00:50;;;;;;;8.73;8.13;;;5.90;63.20;;;;;;5133602;27;20203;-55
2022/04/17 06:03:17;;;;;;;8.70;8.20;;;6.00;62.80;;;;;;5134649;27;20305;-55
2022/04/17 06:05:44;;;;;;;10.18;9.27;;;6.00;63.30;;;;;;5134564;27;20202;-55
2022/04/17 06:08:12;;;;;;;10.07;9.38;;;6.10;62.80;;;;;;5134288;27;20231;-55
2022/04/17 06:10:39;;;;;;;10.35;9.65;;;6.20;61.80;;;;;;5134442;27;20297;-56
2022/04/17 06:13:06;;;;;;;9.88;9.27;;;6.10;61.30;;;;;;5134465;27;20198;-55
2022/04/17 06:15:33;;;;;;;10.43;9.73;;;6.20;61.70;;;;;;5133026;27;20209;-55
2022/04/17 06:17:59;;;;;;;9.27;8.68;;;6.10;61.40;;;;;;5134359;27;20580;-55
2022/04/17 06:20:26;;;;;;;10.15;9.55;;;6.00;62.80;;;;;;5134435;27;20234;-55
2022/04/17 06:22:53;;;;;;;9.82;9.20;;;6.00;63.80;;;;;;5133744;27;20199;-55
2022/04/17 06:25:21;;;;;;;9.43;8.73;;;6.10;63.30;;;;;;5134257;27;20305;-55
2022/04/17 06:27:49;;;;;;;9.65;9.15;;;6.20;62.90;;;;;;5134108;27;20234;-55
2022/04/17 06:30:18;;;;;;;9.90;9.00;;;6.30;62.20;;;;;;5132766;27;20202;-53
2022/04/17 06:32:45;;;;;;;9.55;8.98;;;6.30;61.80;;;;;;5134185;27;20624;-55
2022/04/17 06:35:14;;;;;;;9.77;9.18;;;6.30;61.10;;;;;;5133825;27;20730;-54
2022/04/17 06:37:49;;;;;;;9.20;8.70;;;6.40;61.70;;;;;;5134126;27;20207;-55
2022/04/17 06:40:17;;;;;;;10.27;9.52;;;6.50;61.70;;;;;;5133873;27;20199;-55
2022/04/17 06:42:46;;;;;;;9.43;8.73;;;6.60;60.50;;;;;;5133879;27;20199;-55
2022/04/17 06:45:13;;;;;;;8.65;8.13;;;6.60;59.60;;;;;;5132626;27;20293;-55
2022/04/17 06:47:40;;;;;;;9.27;8.60;;;6.60;61.80;;;;;;5133845;27;20230;-56
2022/04/17 06:50:07;;;;;;;9.55;8.85;;;6.70;59.80;;;;;;5133885;27;20623;-55
2022/04/17 06:52:34;;;;;;;9.50;8.90;;;6.70;59.90;;;;;;5133485;27;20329;-55
2022/04/17 06:55:01;;;;;;;8.85;8.40;;;6.80;59.20;;;;;;5133781;27;20202;-54
2022/04/17 06:57:29;;;;;;;9.50;8.93;;;6.90;59.30;;;;;;5133854;27;20223;-55
2022/04/17 06:59:58;;;;;;;9.38;8.80;;;7.10;58.10;;;;;;5132458;27;20202;-55
2022/04/17 07:02:25;;;;;;;9.65;9.10;;;7.10;59.50;;;;;;5133777;27;20199;-55
2022/04/17 07:04:52;;;;;;;9.25;8.75;;;7.20;59.10;;;;;;5133670;27;20206;-55
2022/04/17 07:07:19;;;;;;;9.80;9.20;;;7.30;59.00;;;;;;5133529;27;20254;-55
2022/04/17 07:09:46;;;;;;;9.75;9.15;;;7.40;58.40;;;;;;5133630;27;20293;-55
2022/04/17 07:12:12;;;;;;;9.60;9.00;;;7.40;56.90;;;;;;5133680;27;20246;-55
2022/04/17 07:14:40;;;;;;;9.90;9.30;;;7.50;58.90;;;;;;5132342;27;20282;-55
2022/04/17 07:17:08;;;;;;;9.90;9.30;;;7.60;58.30;;;;;;5133653;27;20230;-56
2022/04/17 07:19:35;;;;;;;9.73;9.18;;;7.50;55.50;;;;;;5133613;27;20199;-55
2022/04/17 07:22:02;;;;;;;9.68;9.07;;;7.60;56.90;;;;;;5133272;27;20239;-55
2022/04/17 07:24:29;;;;;;;9.80;9.30;;;7.60;57.10;;;;;;5133507;27;20203;-55
2022/04/17 07:26:56;;;;;;;9.85;9.25;;;7.70;57.20;;;;;;5133424;27;20229;-55
2022/04/17 07:29:23;;;;;;;9.95;9.25;;;7.80;56.80;;;;;;5132092;27;20235;-55
2022/04/17 07:31:51;;;;;;;9.95;9.45;;;7.80;57.90;;;;;;5133453;27;20209;-55
2022/04/17 07:34:19;;;;;;;9.40;8.90;;;7.90;57.70;;;;;;5133631;27;20199;-55
2022/04/17 07:36:47;;;;;;;9.60;9.00;;;7.90;56.00;;;;;;5137016;27;20199;-56
2022/04/17 07:39:17;;;;;;;9.75;9.15;;;7.90;56.20;;;;;;5137390;27;20199;-55
2022/04/17 07:41:44;;;;;;;9.88;9.32;;;8.00;55.20;;;;;;5137376;27;20206;-56
2022/04/17 07:44:12;;;;;;;10.05;9.25;;;8.10;55.00;;;;;;5136017;27;20201;-56
2022/04/17 07:46:39;;;;;;;9.77;9.13;;;8.20;54.70;;;;;;5137154;27;20203;-55
2022/04/17 07:49:06;;;;;;;9.10;8.60;;;8.30;55.50;;;;;;5137221;27;20202;-55
2022/04/17 07:51:34;;;;;;;10.10;9.50;;;8.40;54.10;;;;;;5136662;27;20205;-55
2022/04/17 07:54:02;;;;;;;9.00;8.50;;;8.50;53.70;;;;;;5137199;27;20202;-55
2022/04/17 07:56:29;;;;;;;9.73;9.23;;;8.50;54.80;;;;;;5137039;27;20314;-55
2022/04/17 07:58:56;;;;;;;9.30;8.80;;;8.50;54.20;;;;;;5135723;27;20209;-55
2022/04/17 08:01:23;;;;;;;9.50;8.90;;;8.60;53.80;;;;;;5136806;27;20701;-56
2022/04/17 08:03:50;;;;;;;9.90;9.40;;;8.70;53.80;;;;;;5136667;27;20204;-55
2022/04/17 08:06:20;;;;;;;9.98;9.43;;;8.80;52.10;;;;;;5136821;27;20245;-55
2022/04/17 08:08:51;;;;;;;9.70;9.05;;;8.80;53.90;;;;;;5136625;27;20586;-55
2022/04/17 08:11:18;;;;;;;9.55;8.85;;;8.90;52.90;;;;;;5136693;27;20239;-56
2022/04/17 08:13:46;;;;;;;9.10;8.60;;;9.10;51.90;;;;;;5135183;27;20208;-55
2022/04/17 08:16:14;;;;;;;10.07;9.38;;;9.00;51.40;;;;;;5136578;27;20199;-55
2022/04/17 08:18:42;;;;;;;9.32;8.73;;;9.20;50.50;;;;;;5136526;27;20642;-55
2022/04/17 08:21:09;;;;;;;9.88;9.27;;;9.20;51.10;;;;;;5136517;27;20211;-56
2022/04/17 08:23:37;;;;;;;9.43;8.93;;;9.30;50.30;;;;;;5136320;27;20224;-55
2022/04/17 08:26:06;;;;;;;9.60;8.82;;;9.40;50.40;;;;;;5136589;27;20235;-55
2022/04/17 08:28:33;;;;;;;9.82;9.02;;;9.30;49.70;;;;;;5134872;27;20654;-55
2022/04/17 08:31:00;;;;;;;9.18;8.57;;;9.30;50.50;;;;;;5136118;27;20598;-56
2022/04/17 08:33:28;;;;;;;10.05;9.23;;;9.30;50.40;;;;;;5136168;27;20208;-55
2022/04/17 08:35:55;;;;;;;10.30;9.70;;;9.50;50.80;;;;;;5136249;27;20228;-55
2022/04/17 08:38:22;;;;;;;9.13;8.63;;;9.70;51.30;;;;;;5136117;27;20258;-55
2022/04/17 08:40:50;;;;;;;9.95;9.27;;;9.80;50.20;;;;;;5136222;27;20232;-55
2022/04/17 08:43:22;;;;;;;9.07;8.57;;;9.90;50.00;;;;;;5136175;27;20257;-56
2022/04/17 08:45:51;;;;;;;8.95;8.43;;;10.00;49.90;;;;;;5134278;27;20203;-55
2022/04/17 08:48:18;;;;;;;9.65;9.05;;;10.00;49.60;;;;;;5135937;27;20230;-56
2022/04/17 08:50:47;;;;;;;9.02;8.52;;;10.20;49.00;;;;;;5135903;27;20200;-55
2022/04/17 08:53:16;;;;;;;9.50;9.00;;;10.30;48.40;;;;;;5135742;27;20235;-55
2022/04/17 08:55:43;;;;;;;9.68;9.07;;;10.50;48.40;;;;;;5135868;27;20570;-55
2022/04/17 08:58:11;;;;;;;9.50;9.00;;;10.60;48.80;;;;;;5135759;27;20211;-55
2022/04/17 09:00:40;;;;;;;9.48;8.98;;;10.60;46.20;;;;;;5134482;27;20225;-55
2022/04/17 09:03:09;;;;;;;8.93;8.43;;;10.60;47.50;;;;;;5135774;27;20212;-55
2022/04/17 09:05:37;;;;;;;9.35;8.75;;;10.60;47.70;;;;;;5135698;27;20228;-55
2022/04/17 09:08:14;;;;;;;11.25;10.25;;;10.80;46.80;;;;;;5135281;27;20226;-55
2022/04/17 09:10:41;;;;;;;8.73;8.32;;;10.80;47.10;;;;;;5135537;27;20199;-55
2022/04/17 09:13:09;;;;;;;9.40;8.80;;;10.90;46.80;;;;;;5135555;27;20652;-56
2022/04/17 09:15:38;;;;;;;9.10;8.60;;;11.00;45.80;;;;;;5134042;27;20290;-55
2022/04/17 09:18:07;;;;;;;8.75;8.25;;;11.00;44.70;;;;;;5135352;27;20209;-55
2022/04/17 09:20:34;;;;;;;9.40;8.80;;;11.10;46.40;;;;;;5135534;27;20212;-55
2022/04/17 09:23:01;;;;;;;8.75;8.25;;;11.20;45.00;;;;;;5135355;27;20201;-55
2022/04/17 09:25:29;;;;;;;9.30;8.70;;;11.30;45.30;;;;;;5135136;27;20205;-55
2022/04/17 09:27:58;;;;;;;9.60;9.00;;;11.40;45.50;;;;;;5135189;27;20714;-55
2022/04/17 09:30:26;;;;;;;8.90;8.20;;;11.40;47.70;;;;;;5133661;27;20222;-55
2022/04/17 09:32:54;;;;;;;9.40;8.90;;;11.50;46.90;;;;;;5135141;27;20260;-55
2022/04/17 09:35:23;;;;;;;8.88;8.38;;;11.60;43.60;;;;;;5135056;27;20220;-55
2022/04/17 09:37:50;;;;;;;8.07;7.57;;;11.60;45.30;;;;;;5134720;27;20566;-55
2022/04/17 09:40:20;;;;;;;9.00;8.50;;;11.70;46.00;;;;;;5134947;27;20202;-55
2022/04/17 09:42:48;;;;;;;9.30;8.73;;;11.90;45.30;;;;;;5134903;27;20650;-55
2022/04/17 09:45:15;;;;;;;9.65;9.05;;;12.00;45.40;;;;;;5133557;27;20207;-56
2022/04/17 09:47:57;;;;;;;9.40;8.88;;;12.10;44.30;;;;;;5134742;27;20372;-55
2022/04/17 09:50:32;;;;;;;8.35;7.93;;;12.20;43.70;;;;;;5134761;27;20203;-55
2022/04/17 09:53:05;;;;;;;8.77;8.25;;;12.20;43.20;;;;;;5134486;27;20322;-55
2022/04/17 09:55:38;;;;;;;8.80;8.27;;;12.20;44.30;;;;;;5134708;27;20294;-55
2022/04/17 09:58:05;;;;;;;9.10;8.50;;;12.20;42.00;;;;;;5133978;27;20206;-55
2022/04/17 10:00:42;;;;;;;9.63;9.13;;;12.30;44.80;;;;;;5133122;27;20203;-55
2022/04/17 10:03:11;;;;;;;8.30;7.90;;;12.40;43.70;;;;;;5134670;27;20564;-55
2022/04/17 10:05:39;;;;;;;8.80;8.30;;;12.50;43.10;;;;;;5134512;27;20209;-55
2022/04/17 10:08:10;;;;;;;9.60;9.00;;;12.60;43.40;;;;;;5134155;27;20736;-55
2022/04/17 10:10:38;;;;;;;10.00;9.30;;;12.70;43.30;;;;;;5134432;27;20199;-55
2022/04/17 10:13:05;;;;;;;9.00;8.50;;;12.70;43.80;;;;;;5134303;27;20294;-55
2022/04/17 10:15:33;;;;;;;9.30;8.70;;;12.80;42.50;;;;;;5132844;27;20199;-55
2022/04/17 10:18:03;;;;;;;10.40;9.70;;;13.00;43.30;;;;;;5134279;27;20206;-55
2022/04/17 10:20:31;;;;;;;9.27;8.77;;;13.10;43.60;;;;;;5134195;27;20202;-56
2022/04/17 10:23:04;;;;;;;9.27;8.77;;;13.30;42.10;;;;;;5134101;27;20283;-57
2022/04/17 10:25:33;;;;;;;9.30;8.63;;;13.40;41.30;;;;;;5134165;27;20205;-56
2022/04/17 10:28:03;;;;;;;9.52;8.82;;;13.40;42.20;;;;;;5133935;27;20229;-55
2022/04/17 10:30:42;;;;;;;9.40;9.00;;;13.40;42.10;;;;;;5132541;27;20688;-56
2022/04/17 10:33:32;;;;;;;9.82;9.30;;;13.50;43.00;;;;;;5134063;27;20285;-56
2022/04/17 10:36:37;;;;;;;10.15;9.65;;;13.70;44.30;;;;;;5134095;27;20289;-55
2022/04/17 10:39:17;;;;;;;9.65;9.00;;;13.70;42.70;;;;;;5122981;27;20234;-55
2022/04/17 10:41:45;;;;;;;9.50;9.00;;;13.90;41.50;;;;;;5133792;27;20653;-55
2022/04/17 10:44:13;;;;;;;9.70;8.85;;;14.00;41.80;;;;;;5132551;27;20219;-55
2022/04/17 10:46:47;;;;;;;9.60;9.00;;;14.20;41.00;;;;;;5133640;27;20230;-54
2022/04/17 10:49:18;;;;;;;8.95;8.45;;;14.40;41.70;;;;;;5133687;27;20320;-54
2022/04/17 10:51:51;;;;;;;9.45;8.85;;;14.50;40.10;;;;;;5133741;27;20300;-55
2022/04/17 10:54:19;;;;;;;8.65;8.20;;;14.40;40.70;;;;;;5133676;27;20207;-56
2022/04/17 10:57:00;;;;;;;8.93;8.52;;;14.40;39.30;;;;;;5133814;27;20539;-54
2022/04/17 11:00:41;;;;;;;9.65;9.15;;;14.50;39.40;;;;;;5088793;27;20557;-55
2022/04/17 11:03:10;;;;;;;9.10;8.60;;;14.70;42.50;;;;;;5090328;28;20212;-56
2022/04/17 11:06:08;;;;;;;10.02;9.52;;;14.80;40.10;;;;;;5090215;28;20493;-56
2022/04/17 11:08:26;;;;;;;9.23;8.73;;;15.10;40.70;;;;;;5089915;28;20212;-56
2022/04/17 11:10:54;;;;;;;8.83;8.37;;;15.10;38.70;;;;;;5090077;28;20196;-56
2022/04/17 11:13:22;;;;;;;8.67;8.27;;;15.10;38.90;;;;;;5090138;28;20451;-55
2022/04/17 11:15:53;;;;;;;8.87;8.47;;;15.20;42.30;;;;;;5088456;28;20457;-56
2022/04/17 11:18:24;;;;;;;9.20;8.70;;;15.60;38.00;;;;;;5089962;28;20450;-55
2022/04/17 11:20:53;;;;;;;8.57;8.13;;;16.90;37.30;;;;;;5089752;28;20941;-53
2022/04/17 11:23:53;;;;;;;8.93;8.43;;;18.80;34.20;;;;;;5089784;28;20446;-54
2022/04/17 11:26:20;;;;;;;9.23;8.73;;;20.30;31.10;;;;;;5089468;28;20455;-53
2022/04/17 11:28:59;;;;;;;9.53;9.00;;;21.20;31.70;;;;;;5088387;28;21322;-53
2022/04/17 11:31:33;;;;;;;9.70;9.07;;;22.30;30.00;;;;;;5089557;28;20465;-54
2022/04/17 11:34:01;;;;;;;8.60;8.20;;;22.70;28.90;;;;;;5089634;28;20482;-55
2022/04/17 11:36:28;;;;;;;10.07;9.60;;;23.30;28.40;;;;;;5089738;28;20438;-53
2022/04/17 11:38:56;;;;;;;8.70;8.30;;;23.50;27.20;;;;;;5089219;28;20486;-55
2022/04/17 11:41:26;;;;;;;9.70;9.10;;;23.60;27.60;;;;;;5089567;28;20541;-55
2022/04/17 11:44:02;;;;;;;9.20;8.77;;;23.80;27.40;;;;;;5088238;28;20612;-56
2022/04/17 11:46:29;;;;;;;8.43;8.03;;;23.60;27.20;;;;;;5089446;28;20452;-54
2022/04/17 11:48:57;;;;;;;9.00;8.60;;;23.90;26.30;;;;;;5089401;28;20543;-54
2022/04/17 11:51:24;;;;;;;8.73;8.40;;;23.10;27.70;;;;;;5089073;28;20533;-56
2022/04/17 11:53:51;;;;;;;8.83;8.37;;;22.90;26.60;;;;;;5089034;28;20470;-53
2022/04/17 11:56:18;;;;;;;9.30;8.90;;;23.50;28.30;;;;;;5089269;28;20530;-56
2022/04/17 11:58:44;;;;;;;9.00;8.60;;;23.70;26.60;;;;;;5087711;28;20553;-56
2022/04/17 12:01:23;;;;;;;10.00;9.50;;;24.00;27.00;;;;;;5089198;28;20552;-55
2022/04/17 12:03:50;;;;;;;9.40;9.00;;;24.30;26.20;;;;;;5089099;28;20449;-55
2022/04/17 12:06:26;;;;;;;9.37;8.90;;;24.40;27.00;;;;;;5089168;28;20450;-56
2022/04/17 12:08:52;;;;;;;8.70;8.30;;;24.50;24.50;;;;;;5088941;28;20503;-56
2022/04/17 12:11:19;;;;;;;9.03;8.63;;;24.40;25.10;;;;;;5079248;28;20457;-56
2022/04/17 12:13:54;;;;;;;8.37;7.97;;;24.30;24.00;;;;;;5074197;28;20962;-56
2022/04/17 12:16:21;;;;;;;8.90;8.50;;;24.00;25.60;;;;;;5075265;28;20945;-56
2022/04/17 12:18:54;;;;;;;8.73;8.33;;;23.80;26.10;;;;;;5075304;28;20876;-56
2022/04/17 12:21:28;;;;;;;9.20;8.80;;;23.30;28.60;;;;;;5075332;28;20989;-57
2022/04/17 12:23:55;;;;;;;8.60;8.10;;;22.50;25.00;;;;;;5075085;28;20451;-56
2022/04/17 12:26:23;;;;;;;8.50;8.00;;;21.60;27.40;;;;;;5075266;28;20523;-54
2022/04/17 12:28:51;;;;;;;8.90;8.50;;;21.20;27.70;;;;;;5073656;28;20848;-55
2022/04/17 12:31:18;;;;;;;8.53;8.13;;;21.30;27.90;;;;;;5075206;28;20458;-55
2022/04/17 12:33:45;;;;;;;8.70;8.30;;;21.40;26.20;;;;;;5075224;28;20457;-55
2022/04/17 12:36:13;;;;;;;8.20;7.80;;;21.10;27.80;;;;;;5074876;28;21009;-55
2022/04/17 12:38:43;;;;;;;8.80;8.40;;;20.90;27.00;;;;;;5074801;28;20933;-52
2022/04/17 12:41:22;;;;;;;8.73;8.33;;;20.70;28.00;;;;;;5074884;28;20451;-54
2022/04/17 12:43:50;;;;;;;8.90;8.40;;;20.60;27.00;;;;;;5073605;28;20450;-56
2022/04/17 12:46:25;;;;;;;8.40;8.00;;;20.50;27.50;;;;;;5074874;28;20449;-56
2022/04/17 12:50:22;;;;;;;8.97;8.57;;;20.50;26.40;;;;;;5078214;27;20631;-52
2022/04/17 12:52:56;;;;;;;8.60;8.20;;;20.20;28.50;;;;;;5069923;28;20578;-53
2022/04/17 12:55:31;;;;;;;8.53;8.13;;;20.10;27.80;;;;;;5069461;28;20463;-54
2022/04/17 12:57:58;;;;;;;8.87;8.37;;;19.80;28.80;;;;;;5087299;28;20943;-52
2022/04/17 13:00:27;;;;;;;8.70;8.30;;;19.50;28.30;;;;;;5082525;28;20542;-54
2022/04/17 13:03:09;;;;;;;8.40;8.00;;;19.30;31.20;;;;;;5069301;28;20801;-55
2022/04/17 13:05:38;;;;;;;9.27;8.77;;;19.00;31.10;;;;;;5068715;28;20450;-54
2022/04/17 13:08:06;;;;;;;8.50;8.10;;;18.80;30.10;;;;;;5069947;28;20542;-56